Meteo Giornale » Osservazioni meteo Italia » Trieste

ore: 07:55 - Osservazioni Meteo Trieste
Lat. 45° 39' N Lon. 13° 45' E Alt. 8 metri s.l.m.

sereno Europe/Rome

13 °C

Sereno

Temp. 24 Ore

10 °C

22 °C

Nord

0 Km/h

Dew point 8 °C

Umidità 71 %

Visibilità  10 Km

Il sole sorge alle ore 05:53

Il sole tramonta alle ore 18:27

Data e Ora Cielo e Fenomeni T °C DP °C Um. % Pres. hPa Vis. km Vento km/h
Oggi h: 07:55 sereno Sereno 13 8 71 1016 10 N 0
Oggi h: 06:55 sereno Sereno 11 6 71 1016 10 N 0
Oggi h: 05:55 sereno Sereno 10 5 71 1016 10 N 0
Oggi h: 04:55 sereno Sereno 11 6 71 1016 10 N 1.8
Oggi h: 03:55 sereno Sereno 13 6 62 1015 10 N 1.8
Oggi h: 03:55 sereno Sereno 14 5 54 1016 10 N 0
Oggi h: 01:55 sereno Sereno 15 3 44 1016 10 NE 20.3
Oggi h: 00:55 sereno Sereno 14 5 54 1016 10 N 3.7
Ieri h: 23:55 sereno Sereno 15 5 51 1016 10 N 3.7
Ieri h: 22:55 sereno Sereno 16 3 41 1016 10 N 1.8
Ieri h: 21:55 sereno Sereno 16 3 41 1016 10 NE 20.3
Ieri h: 20:55 sereno Sereno 17 4 41 1016 10 NE 18.5
Ieri h: 19:55 sereno Sereno 14 7 62 1017 10 N 1.8
Ieri h: 18:55 sereno Sereno 15 8 62 1017 10 N 0
Ieri h: 17:55 sereno Sereno 16 9 63 1017 10 N 0
Ieri h: 16:55 sereno Sereno 17 9 59 1018 10 N 1.8
Ieri h: 15:55 sereno Sereno 16 9 63 1019 10 N 0
Ieri h: 14:55 sereno Sereno 17 9 59 1019 10 N 0
Ieri h: 13:55 sereno Sereno 22 4 30 1019 10 NE 11.1
Ieri h: 12:55 sereno Sereno 21 4 32 1020 10 N/NE 11.1
Ieri h: 11:55 sereno Sereno 20 4 34 1021 10 NE 13
Ieri h: 10:55 sereno Sereno 19 3 34 1021 10 NE 18.5
Ieri h: 09:55 sereno Sereno 18 3 36 1022 10 NE 24
Ieri h: 08:55 sereno Sereno 16 3 41 1021 10 NE 25.9